sensor_id;sensor_type;location;lat;lon;timestamp;P1;durP1;ratioP1;P2;durP2;ratioP2
20855;SDS011;63058;49.424;8.420;2023-05-20T09:24:25;5.53;;;4.10;;
20855;SDS011;63058;49.424;8.420;2023-05-20T09:26:51;5.32;;;4.28;;
20855;SDS011;63058;49.424;8.420;2023-05-20T09:29:16;4.68;;;3.90;;
20855;SDS011;63058;49.424;8.420;2023-05-20T09:31:45;4.85;;;3.35;;
20855;SDS011;63058;49.424;8.420;2023-05-20T09:34:11;4.25;;;3.28;;
20855;SDS011;63058;49.424;8.420;2023-05-20T09:36:38;6.78;;;4.07;;
20855;SDS011;63058;49.424;8.420;2023-05-20T09:39:05;4.78;;;3.80;;
20855;SDS011;63058;49.424;8.420;2023-05-20T09:41:39;4.20;;;3.55;;
20855;SDS011;63058;49.424;8.420;2023-05-20T09:44:20;4.68;;;3.33;;
20855;SDS011;63058;49.424;8.420;2023-05-20T09:46:47;7.35;;;4.00;;
20855;SDS011;63058;49.424;8.420;2023-05-20T09:49:14;5.32;;;3.67;;
20855;SDS011;63058;49.424;8.420;2023-05-20T09:51:41;3.83;;;3.15;;
20855;SDS011;63058;49.424;8.420;2023-05-20T09:54:09;6.50;;;3.10;;
20855;SDS011;63058;49.424;8.420;2023-05-20T09:56:36;11.63;;;3.38;;
20855;SDS011;63058;49.424;8.420;2023-05-20T09:59:03;7.72;;;3.03;;
20855;SDS011;63058;49.424;8.420;2023-05-20T10:01:29;2.85;;;2.63;;
20855;SDS011;63058;49.424;8.420;2023-05-20T10:03:55;3.70;;;3.00;;
20855;SDS011;63058;49.424;8.420;2023-05-20T10:06:27;3.03;;;2.50;;
20855;SDS011;63058;49.424;8.420;2023-05-20T10:15:20;4.82;;;2.78;;
20855;SDS011;63058;49.424;8.420;2023-05-20T10:20:44;4.38;;;3.42;;
20855;SDS011;63058;49.424;8.420;2023-05-20T10:23:19;3.53;;;3.10;;
20855;SDS011;63058;49.424;8.420;2023-05-20T10:25:52;3.72;;;3.40;;
20855;SDS011;63058;49.424;8.420;2023-05-20T10:28:32;3.22;;;2.90;;
20855;SDS011;63058;49.424;8.420;2023-05-20T10:31:00;3.72;;;3.40;;
20855;SDS011;63058;49.424;8.420;2023-05-20T10:33:27;3.20;;;2.90;;
20855;SDS011;63058;49.424;8.420;2023-05-20T10:35:53;4.90;;;3.35;;
20855;SDS011;63058;49.424;8.420;2023-05-20T10:38:22;3.50;;;3.17;;
20855;SDS011;63058;49.424;8.420;2023-05-20T10:40:49;4.05;;;2.63;;
20855;SDS011;63058;49.424;8.420;2023-05-20T10:43:15;7.13;;;3.30;;
20855;SDS011;63058;49.424;8.420;2023-05-20T10:45:53;3.83;;;3.42;;
20855;SDS011;63058;49.424;8.420;2023-05-20T10:50:55;4.43;;;3.75;;
20855;SDS011;63058;49.424;8.420;2023-05-20T10:53:24;3.38;;;2.90;;
20855;SDS011;63058;49.424;8.420;2023-05-20T10:55:52;4.28;;;2.90;;
20855;SDS011;63058;49.424;8.420;2023-05-20T10:58:20;3.65;;;2.85;;
20855;SDS011;63058;49.424;8.420;2023-05-20T11:00:47;3.00;;;2.70;;
20855;SDS011;63058;49.424;8.420;2023-05-20T11:03:15;3.22;;;2.70;;
20855;SDS011;63058;49.424;8.420;2023-05-20T11:05:43;4.10;;;2.70;;
20855;SDS011;63058;49.424;8.420;2023-05-20T11:08:10;3.13;;;2.50;;
20855;SDS011;63058;49.424;8.420;2023-05-20T11:10:36;2.90;;;2.60;;
20855;SDS011;63058;49.424;8.420;2023-05-20T11:13:02;3.40;;;3.10;;
20855;SDS011;63058;49.424;8.420;2023-05-20T11:15:29;5.10;;;2.60;;
20855;SDS011;63058;49.424;8.420;2023-05-20T11:17:59;2.92;;;2.45;;
20855;SDS011;63058;49.424;8.420;2023-05-20T11:20:26;3.50;;;2.65;;
20855;SDS011;63058;49.424;8.420;2023-05-20T11:22:53;3.20;;;2.90;;
20855;SDS011;63058;49.424;8.420;2023-05-20T11:25:19;2.72;;;2.50;;
20855;SDS011;63058;49.424;8.420;2023-05-20T11:27:45;3.33;;;2.90;;
20855;SDS011;63058;49.424;8.420;2023-05-20T11:30:14;3.00;;;2.65;;
20855;SDS011;63058;49.424;8.420;2023-05-20T11:33:01;2.67;;;2.42;;
20855;SDS011;63058;49.424;8.420;2023-05-20T11:35:28;2.85;;;2.58;;
20855;SDS011;63058;49.424;8.420;2023-05-20T11:40:27;3.70;;;2.47;;
20855;SDS011;63058;49.424;8.420;2023-05-20T11:42:56;4.20;;;2.83;;
20855;SDS011;63058;49.424;8.420;2023-05-20T11:45:23;2.85;;;2.50;;
20855;SDS011;63058;49.424;8.420;2023-05-20T11:47:58;2.83;;;2.38;;
20855;SDS011;63058;49.424;8.420;2023-05-20T11:50:32;4.70;;;2.70;;
20855;SDS011;63058;49.424;8.420;2023-05-20T11:53:10;2.95;;;2.65;;
20855;SDS011;63058;49.424;8.420;2023-05-20T11:55:47;3.03;;;2.53;;
20855;SDS011;63058;49.424;8.420;2023-05-20T11:58:21;4.43;;;3.60;;
20855;SDS011;63058;49.424;8.420;2023-05-20T12:00:48;4.72;;;3.50;;
20855;SDS011;63058;49.424;8.420;2023-05-20T12:03:15;3.58;;;3.08;;
20855;SDS011;63058;49.424;8.420;2023-05-20T12:05:42;4.90;;;3.03;;
20855;SDS011;63058;49.424;8.420;2023-05-20T12:08:08;3.67;;;2.65;;
20855;SDS011;63058;49.424;8.420;2023-05-20T12:10:34;3.75;;;3.00;;
20855;SDS011;63058;49.424;8.420;2023-05-20T12:13:02;4.05;;;2.95;;
20855;SDS011;63058;49.424;8.420;2023-05-20T12:15:34;3.20;;;2.80;;
20855;SDS011;63058;49.424;8.420;2023-05-20T12:18:00;4.53;;;3.03;;
20855;SDS011;63058;49.424;8.420;2023-05-20T12:20:27;5.38;;;3.78;;
20855;SDS011;63058;49.424;8.420;2023-05-20T12:22:55;5.28;;;3.58;;
20855;SDS011;63058;49.424;8.420;2023-05-20T12:25:21;3.63;;;2.83;;
20855;SDS011;63058;49.424;8.420;2023-05-20T12:27:47;3.75;;;3.00;;
20855;SDS011;63058;49.424;8.420;2023-05-20T12:30:18;4.65;;;3.15;;
20855;SDS011;63058;49.424;8.420;2023-05-20T12:32:45;5.28;;;3.28;;
20855;SDS011;63058;49.424;8.420;2023-05-20T12:35:12;3.53;;;2.97;;
20855;SDS011;63058;49.424;8.420;2023-05-20T12:37:38;4.80;;;3.00;;
20855;SDS011;63058;49.424;8.420;2023-05-20T12:40:08;4.88;;;3.03;;
20855;SDS011;63058;49.424;8.420;2023-05-20T12:42:37;5.05;;;3.35;;
20855;SDS011;63058;49.424;8.420;2023-05-20T12:45:03;3.92;;;3.25;;
20855;SDS011;63058;49.424;8.420;2023-05-20T12:47:30;4.18;;;3.30;;
20855;SDS011;63058;49.424;8.420;2023-05-20T12:49:56;6.35;;;3.00;;
20855;SDS011;63058;49.424;8.420;2023-05-20T12:52:22;3.42;;;2.92;;
20855;SDS011;63058;49.424;8.420;2023-05-20T12:54:48;4.30;;;3.10;;
20855;SDS011;63058;49.424;8.420;2023-05-20T12:57:14;4.07;;;3.60;;
20855;SDS011;63058;49.424;8.420;2023-05-20T12:59:40;3.97;;;2.97;;
20855;SDS011;63058;49.424;8.420;2023-05-20T13:02:05;4.28;;;3.15;;
20855;SDS011;63058;49.424;8.420;2023-05-20T13:04:31;3.33;;;2.72;;
20855;SDS011;63058;49.424;8.420;2023-05-20T13:06:57;6.15;;;3.38;;
20855;SDS011;63058;49.424;8.420;2023-05-20T13:09:23;6.25;;;3.22;;
20855;SDS011;63058;49.424;8.420;2023-05-20T13:11:49;3.58;;;3.00;;
20855;SDS011;63058;49.424;8.420;2023-05-20T13:14:14;12.18;;;3.90;;
20855;SDS011;63058;49.424;8.420;2023-05-20T13:16:40;8.15;;;3.90;;
20855;SDS011;63058;49.424;8.420;2023-05-20T13:19:06;3.90;;;3.38;;
20855;SDS011;63058;49.424;8.420;2023-05-20T13:21:31;4.10;;;3.17;;
20855;SDS011;63058;49.424;8.420;2023-05-20T13:23:58;55.17;;;6.70;;
20855;SDS011;63058;49.424;8.420;2023-05-20T13:26:25;4.95;;;3.30;;
20855;SDS011;63058;49.424;8.420;2023-05-20T13:28:50;5.25;;;3.67;;
20855;SDS011;63058;49.424;8.420;2023-05-20T13:31:16;7.40;;;3.85;;
20855;SDS011;63058;49.424;8.420;2023-05-20T13:33:42;5.07;;;3.60;;
20855;SDS011;63058;49.424;8.420;2023-05-20T13:36:07;4.43;;;3.28;;
20855;SDS011;63058;49.424;8.420;2023-05-20T13:38:34;12.35;;;4.07;;
20855;SDS011;63058;49.424;8.420;2023-05-20T13:41:00;3.30;;;2.95;;
20855;SDS011;63058;49.424;8.420;2023-05-20T13:43:25;8.18;;;3.53;;
20855;SDS011;63058;49.424;8.420;2023-05-20T13:45:52;8.18;;;2.60;;
20855;SDS011;63058;49.424;8.420;2023-05-20T13:48:18;3.35;;;2.75;;
20855;SDS011;63058;49.424;8.420;2023-05-20T13:50:44;18.25;;;3.20;;
20855;SDS011;63058;49.424;8.420;2023-05-20T13:53:10;6.65;;;2.72;;
20855;SDS011;63058;49.424;8.420;2023-05-20T13:55:37;5.53;;;3.00;;
20855;SDS011;63058;49.424;8.420;2023-05-20T13:58:05;10.25;;;3.50;;
20855;SDS011;63058;49.424;8.420;2023-05-20T14:00:36;5.63;;;3.63;;
20855;SDS011;63058;49.424;8.420;2023-05-20T14:03:02;3.30;;;2.78;;
20855;SDS011;63058;49.424;8.420;2023-05-20T14:05:33;7.63;;;3.17;;
20855;SDS011;63058;49.424;8.420;2023-05-20T14:07:59;3.95;;;2.75;;
20855;SDS011;63058;49.424;8.420;2023-05-20T14:10:24;5.65;;;3.13;;
20855;SDS011;63058;49.424;8.420;2023-05-20T14:12:56;3.85;;;3.25;;
20855;SDS011;63058;49.424;8.420;2023-05-20T14:15:22;5.00;;;3.33;;
20855;SDS011;63058;49.424;8.420;2023-05-20T14:17:48;7.55;;;3.00;;
20855;SDS011;63058;49.424;8.420;2023-05-20T14:20:14;3.22;;;2.85;;
20855;SDS011;63058;49.424;8.420;2023-05-20T14:22:40;2.95;;;2.60;;
20855;SDS011;63058;49.424;8.420;2023-05-20T14:25:06;4.95;;;2.70;;
20855;SDS011;63058;49.424;8.420;2023-05-20T14:27:32;3.35;;;3.00;;
20855;SDS011;63058;49.424;8.420;2023-05-20T14:29:58;2.55;;;2.35;;
20855;SDS011;63058;49.424;8.420;2023-05-20T14:32:23;3.00;;;2.70;;
20855;SDS011;63058;49.424;8.420;2023-05-20T14:34:50;3.35;;;2.92;;
20855;SDS011;63058;49.424;8.420;2023-05-20T14:37:16;4.22;;;2.88;;
20855;SDS011;63058;49.424;8.420;2023-05-20T14:39:41;4.35;;;3.00;;
20855;SDS011;63058;49.424;8.420;2023-05-20T14:42:07;3.60;;;2.60;;
20855;SDS011;63058;49.424;8.420;2023-05-20T14:44:33;2.75;;;2.53;;
20855;SDS011;63058;49.424;8.420;2023-05-20T14:46:58;3.10;;;2.80;;
20855;SDS011;63058;49.424;8.420;2023-05-20T14:49:24;3.10;;;2.30;;
20855;SDS011;63058;49.424;8.420;2023-05-20T14:51:50;4.32;;;2.53;;
20855;SDS011;63058;49.424;8.420;2023-05-20T14:54:15;4.97;;;2.72;;
20855;SDS011;63058;49.424;8.420;2023-05-20T14:56:43;3.15;;;2.60;;
20855;SDS011;63058;49.424;8.420;2023-05-20T14:59:08;3.80;;;2.72;;
20855;SDS011;63058;49.424;8.420;2023-05-20T15:01:34;2.75;;;2.55;;
20855;SDS011;63058;49.424;8.420;2023-05-20T15:04:00;6.22;;;2.80;;
20855;SDS011;63058;49.424;8.420;2023-05-20T15:06:27;7.88;;;2.70;;
20855;SDS011;63058;49.424;8.420;2023-05-20T15:08:52;9.40;;;3.45;;
20855;SDS011;63058;49.424;8.420;2023-05-20T15:11:18;10.77;;;3.72;;
20855;SDS011;63058;49.424;8.420;2023-05-20T15:13:43;9.45;;;3.70;;
20855;SDS011;63058;49.424;8.420;2023-05-20T15:16:10;8.80;;;4.28;;
20855;SDS011;63058;49.424;8.420;2023-05-20T15:18:36;9.15;;;3.47;;
20855;SDS011;63058;49.424;8.420;2023-05-20T15:21:03;10.07;;;4.28;;
20855;SDS011;63058;49.424;8.420;2023-05-20T15:23:29;4.70;;;3.72;;
20855;SDS011;63058;49.424;8.420;2023-05-20T15:25:54;5.53;;;3.88;;
20855;SDS011;63058;49.424;8.420;2023-05-20T15:28:22;4.30;;;3.65;;
20855;SDS011;63058;49.424;8.420;2023-05-20T15:30:50;5.88;;;3.20;;
20855;SDS011;63058;49.424;8.420;2023-05-20T15:33:20;3.88;;;3.20;;
20855;SDS011;63058;49.424;8.420;2023-05-20T15:35:46;3.47;;;2.97;;
20855;SDS011;63058;49.424;8.420;2023-05-20T15:38:12;4.88;;;3.50;;
20855;SDS011;63058;49.424;8.420;2023-05-20T15:40:39;9.52;;;3.45;;
20855;SDS011;63058;49.424;8.420;2023-05-20T15:43:05;6.28;;;4.25;;
20855;SDS011;63058;49.424;8.420;2023-05-20T15:45:31;7.00;;;4.32;;
20855;SDS011;63058;49.424;8.420;2023-05-20T15:47:57;8.18;;;3.63;;
20855;SDS011;63058;49.424;8.420;2023-05-20T15:50:23;4.63;;;3.50;;
20855;SDS011;63058;49.424;8.420;2023-05-20T15:52:50;6.60;;;4.47;;
20855;SDS011;63058;49.424;8.420;2023-05-20T15:55:16;6.35;;;4.00;;
20855;SDS011;63058;49.424;8.420;2023-05-20T15:57:42;5.07;;;4.35;;
20855;SDS011;63058;49.424;8.420;2023-05-20T16:00:08;9.88;;;4.82;;
20855;SDS011;63058;49.424;8.420;2023-05-20T16:02:35;11.70;;;4.72;;
20855;SDS011;63058;49.424;8.420;2023-05-20T16:05:01;7.55;;;4.15;;
20855;SDS011;63058;49.424;8.420;2023-05-20T16:07:27;7.20;;;4.15;;
20855;SDS011;63058;49.424;8.420;2023-05-20T16:09:52;5.55;;;4.10;;
20855;SDS011;63058;49.424;8.420;2023-05-20T16:12:18;9.68;;;4.72;;
20855;SDS011;63058;49.424;8.420;2023-05-20T16:14:44;6.55;;;4.53;;
20855;SDS011;63058;49.424;8.420;2023-05-20T16:17:10;11.68;;;5.00;;
20855;SDS011;63058;49.424;8.420;2023-05-20T16:19:36;10.40;;;4.57;;
20855;SDS011;63058;49.424;8.420;2023-05-20T16:22:02;7.05;;;4.45;;
20855;SDS011;63058;49.424;8.420;2023-05-20T16:24:28;10.52;;;5.05;;
20855;SDS011;63058;49.424;8.420;2023-05-20T16:26:53;4.80;;;4.10;;
20855;SDS011;63058;49.424;8.420;2023-05-20T16:29:19;5.82;;;4.75;;
20855;SDS011;63058;49.424;8.420;2023-05-20T16:31:45;5.60;;;4.50;;
20855;SDS011;63058;49.424;8.420;2023-05-20T16:34:11;9.40;;;4.97;;
20855;SDS011;63058;49.424;8.420;2023-05-20T16:36:37;4.72;;;4.22;;
20855;SDS011;63058;49.424;8.420;2023-05-20T16:39:03;6.53;;;3.80;;
20855;SDS011;63058;49.424;8.420;2023-05-20T16:41:29;6.03;;;4.10;;
20855;SDS011;63058;49.424;8.420;2023-05-20T16:43:55;6.90;;;4.80;;
20855;SDS011;63058;49.424;8.420;2023-05-20T16:46:20;5.05;;;4.00;;
20855;SDS011;63058;49.424;8.420;2023-05-20T16:48:46;8.65;;;4.05;;
20855;SDS011;63058;49.424;8.420;2023-05-20T16:51:12;6.35;;;5.75;;
20855;SDS011;63058;49.424;8.420;2023-05-20T16:53:38;6.30;;;5.25;;
20855;SDS011;63058;49.424;8.420;2023-05-20T16:56:06;7.38;;;5.03;;
20855;SDS011;63058;49.424;8.420;2023-05-20T16:58:32;7.32;;;4.78;;
20855;SDS011;63058;49.424;8.420;2023-05-20T17:00:58;7.50;;;5.35;;
20855;SDS011;63058;49.424;8.420;2023-05-20T17:03:24;7.32;;;5.55;;
20855;SDS011;63058;49.424;8.420;2023-05-20T17:05:49;5.30;;;4.80;;
20855;SDS011;63058;49.424;8.420;2023-05-20T17:08:15;9.48;;;4.88;;
20855;SDS011;63058;49.424;8.420;2023-05-20T17:10:42;13.88;;;4.95;;
20855;SDS011;63058;49.424;8.420;2023-05-20T17:13:07;9.15;;;6.00;;
20855;SDS011;63058;49.424;8.420;2023-05-20T17:15:33;9.13;;;4.97;;
20855;SDS011;63058;49.424;8.420;2023-05-20T17:18:01;6.30;;;5.70;;
20855;SDS011;63058;49.424;8.420;2023-05-20T17:20:27;15.05;;;5.00;;
20855;SDS011;63058;49.424;8.420;2023-05-20T17:22:53;8.07;;;5.43;;
20855;SDS011;63058;49.424;8.420;2023-05-20T17:25:19;8.23;;;5.43;;
20855;SDS011;63058;49.424;8.420;2023-05-20T17:27:44;8.48;;;4.70;;
20855;SDS011;63058;49.424;8.420;2023-05-20T17:30:11;9.15;;;5.70;;
20855;SDS011;63058;49.424;8.420;2023-05-20T17:32:37;5.03;;;4.53;;
20855;SDS011;63058;49.424;8.420;2023-05-20T17:35:03;6.18;;;4.57;;
20855;SDS011;63058;49.424;8.420;2023-05-20T17:37:30;6.25;;;5.65;;
20855;SDS011;63058;49.424;8.420;2023-05-20T17:39:56;6.28;;;5.22;;
20855;SDS011;63058;49.424;8.420;2023-05-20T17:42:21;9.95;;;6.22;;
20855;SDS011;63058;49.424;8.420;2023-05-20T17:44:47;7.50;;;5.28;;
20855;SDS011;63058;49.424;8.420;2023-05-20T17:47:13;8.27;;;5.80;;
20855;SDS011;63058;49.424;8.420;2023-05-20T17:49:38;6.47;;;5.40;;
20855;SDS011;63058;49.424;8.420;2023-05-20T17:52:05;4.97;;;4.47;;
20855;SDS011;63058;49.424;8.420;2023-05-20T17:54:31;6.32;;;5.15;;
20855;SDS011;63058;49.424;8.420;2023-05-20T17:56:56;32.60;;;6.93;;
20855;SDS011;63058;49.424;8.420;2023-05-20T17:59:22;6.72;;;5.47;;
20855;SDS011;63058;49.424;8.420;2023-05-20T18:01:48;6.65;;;6.00;;
20855;SDS011;63058;49.424;8.420;2023-05-20T18:04:15;6.20;;;5.03;;
20855;SDS011;63058;49.424;8.420;2023-05-20T18:06:42;5.03;;;4.40;;
20855;SDS011;63058;49.424;8.420;2023-05-20T18:09:07;6.35;;;5.57;;
20855;SDS011;63058;49.424;8.420;2023-05-20T18:11:33;7.53;;;5.68;;
20855;SDS011;63058;49.424;8.420;2023-05-20T18:14:01;7.43;;;5.03;;
20855;SDS011;63058;49.424;8.420;2023-05-20T18:16:27;5.75;;;5.20;;
20855;SDS011;63058;49.424;8.420;2023-05-20T18:18:54;6.53;;;5.82;;
20855;SDS011;63058;49.424;8.420;2023-05-20T18:21:20;6.85;;;6.05;;
20855;SDS011;63058;49.424;8.420;2023-05-20T18:23:47;9.93;;;7.15;;
20855;SDS011;63058;49.424;8.420;2023-05-20T18:26:13;9.93;;;7.10;;
20855;SDS011;63058;49.424;8.420;2023-05-20T18:28:39;7.53;;;5.90;;
20855;SDS011;63058;49.424;8.420;2023-05-20T18:31:05;7.05;;;5.85;;
20855;SDS011;63058;49.424;8.420;2023-05-20T18:33:31;6.43;;;5.70;;
20855;SDS011;63058;49.424;8.420;2023-05-20T18:35:57;10.35;;;5.65;;
20855;SDS011;63058;49.424;8.420;2023-05-20T18:38:23;6.85;;;5.43;;
20855;SDS011;63058;49.424;8.420;2023-05-20T18:40:48;6.20;;;5.40;;
20855;SDS011;63058;49.424;8.420;2023-05-20T18:43:14;6.28;;;5.68;;
20855;SDS011;63058;49.424;8.420;2023-05-20T18:45:40;8.00;;;5.88;;
20855;SDS011;63058;49.424;8.420;2023-05-20T18:48:06;10.85;;;7.13;;
20855;SDS011;63058;49.424;8.420;2023-05-20T18:50:32;10.73;;;6.68;;
20855;SDS011;63058;49.424;8.420;2023-05-20T18:52:58;7.75;;;5.65;;
20855;SDS011;63058;49.424;8.420;2023-05-20T18:55:23;8.70;;;6.85;;
20855;SDS011;63058;49.424;8.420;2023-05-20T18:57:49;7.10;;;6.05;;
20855;SDS011;63058;49.424;8.420;2023-05-20T19:00:17;6.57;;;5.57;;
20855;SDS011;63058;49.424;8.420;2023-05-20T19:02:43;11.02;;;6.07;;
20855;SDS011;63058;49.424;8.420;2023-05-20T19:05:09;7.57;;;6.78;;
20855;SDS011;63058;49.424;8.420;2023-05-20T19:07:39;6.45;;;5.78;;
20855;SDS011;63058;49.424;8.420;2023-05-20T19:10:05;7.65;;;6.78;;
20855;SDS011;63058;49.424;8.420;2023-05-20T19:12:31;8.05;;;6.82;;
20855;SDS011;63058;49.424;8.420;2023-05-20T19:14:57;10.20;;;5.93;;
20855;SDS011;63058;49.424;8.420;2023-05-20T19:17:23;14.50;;;8.90;;
20855;SDS011;63058;49.424;8.420;2023-05-20T19:19:49;7.68;;;6.30;;
20855;SDS011;63058;49.424;8.420;2023-05-20T19:22:14;10.45;;;8.00;;
20855;SDS011;63058;49.424;8.420;2023-05-20T19:24:40;8.73;;;7.30;;
20855;SDS011;63058;49.424;8.420;2023-05-20T19:27:06;10.80;;;8.90;;
20855;SDS011;63058;49.424;8.420;2023-05-20T19:29:32;11.32;;;7.65;;
20855;SDS011;63058;49.424;8.420;2023-05-20T19:31:57;8.43;;;7.53;;
20855;SDS011;63058;49.424;8.420;2023-05-20T19:34:23;7.43;;;5.80;;
20855;SDS011;63058;49.424;8.420;2023-05-20T19:36:49;7.75;;;5.85;;
20855;SDS011;63058;49.424;8.420;2023-05-20T19:39:15;9.13;;;8.13;;
20855;SDS011;63058;49.424;8.420;2023-05-20T19:41:41;14.43;;;8.60;;
20855;SDS011;63058;49.424;8.420;2023-05-20T19:44:07;13.00;;;8.18;;
20855;SDS011;63058;49.424;8.420;2023-05-20T19:46:34;7.72;;;6.82;;
20855;SDS011;63058;49.424;8.420;2023-05-20T19:48:59;7.95;;;6.80;;
20855;SDS011;63058;49.424;8.420;2023-05-20T19:51:25;10.43;;;8.23;;
20855;SDS011;63058;49.424;8.420;2023-05-20T19:53:51;10.80;;;9.35;;
20855;SDS011;63058;49.424;8.420;2023-05-20T19:56:17;10.10;;;7.72;;
20855;SDS011;63058;49.424;8.420;2023-05-20T19:58:45;14.02;;;10.40;;
20855;SDS011;63058;49.424;8.420;2023-05-20T20:01:11;7.78;;;6.22;;
20855;SDS011;63058;49.424;8.420;2023-05-20T20:03:37;12.65;;;8.82;;
20855;SDS011;63058;49.424;8.420;2023-05-20T20:06:04;10.73;;;8.40;;
20855;SDS011;63058;49.424;8.420;2023-05-20T20:08:30;9.63;;;7.75;;
20855;SDS011;63058;49.424;8.420;2023-05-20T20:10:55;10.05;;;8.68;;
20855;SDS011;63058;49.424;8.420;2023-05-20T20:13:21;9.45;;;7.65;;
20855;SDS011;63058;49.424;8.420;2023-05-20T20:15:47;13.48;;;9.85;;
20855;SDS011;63058;49.424;8.420;2023-05-20T20:18:12;12.68;;;9.82;;
20855;SDS011;63058;49.424;8.420;2023-05-20T20:20:38;10.07;;;9.02;;
20855;SDS011;63058;49.424;8.420;2023-05-20T20:23:05;10.82;;;9.13;;
20855;SDS011;63058;49.424;8.420;2023-05-20T20:25:32;9.95;;;8.30;;
20855;SDS011;63058;49.424;8.420;2023-05-20T20:27:59;9.70;;;8.70;;
20855;SDS011;63058;49.424;8.420;2023-05-20T20:30:24;10.48;;;8.02;;
20855;SDS011;63058;49.424;8.420;2023-05-20T20:32:50;9.48;;;7.13;;
20855;SDS011;63058;49.424;8.420;2023-05-20T20:35:17;8.35;;;6.68;;
20855;SDS011;63058;49.424;8.420;2023-05-20T20:37:43;11.65;;;8.30;;
20855;SDS011;63058;49.424;8.420;2023-05-20T20:40:09;11.40;;;9.32;;
20855;SDS011;63058;49.424;8.420;2023-05-20T20:42:40;14.43;;;10.60;;
20855;SDS011;63058;49.424;8.420;2023-05-20T20:45:08;14.52;;;8.75;;
20855;SDS011;63058;49.424;8.420;2023-05-20T20:47:36;12.25;;;9.88;;
20855;SDS011;63058;49.424;8.420;2023-05-20T20:50:04;10.68;;;9.02;;
20855;SDS011;63058;49.424;8.420;2023-05-20T20:52:31;12.75;;;10.00;;
20855;SDS011;63058;49.424;8.420;2023-05-20T20:54:58;8.50;;;7.22;;
20855;SDS011;63058;49.424;8.420;2023-05-20T20:57:23;14.43;;;11.60;;
20855;SDS011;63058;49.424;8.420;2023-05-20T20:59:50;12.43;;;11.02;;
20855;SDS011;63058;49.424;8.420;2023-05-20T21:02:21;10.45;;;9.27;;
20855;SDS011;63058;49.424;8.420;2023-05-20T21:04:48;14.40;;;9.65;;
20855;SDS011;63058;49.424;8.420;2023-05-20T21:07:14;14.02;;;11.10;;
20855;SDS011;63058;49.424;8.420;2023-05-20T21:09:42;10.70;;;8.15;;
20855;SDS011;63058;49.424;8.420;2023-05-20T21:12:10;10.27;;;8.13;;
20855;SDS011;63058;49.424;8.420;2023-05-20T21:14:36;12.82;;;10.00;;
20855;SDS011;63058;49.424;8.420;2023-05-20T21:17:02;11.98;;;9.57;;
20855;SDS011;63058;49.424;8.420;2023-05-20T21:19:27;11.23;;;9.50;;
20855;SDS011;63058;49.424;8.420;2023-05-20T21:21:53;14.13;;;11.25;;
20855;SDS011;63058;49.424;8.420;2023-05-20T21:24:19;11.15;;;9.07;;
20855;SDS011;63058;49.424;8.420;2023-05-20T21:26:45;18.27;;;12.00;;
20855;SDS011;63058;49.424;8.420;2023-05-20T21:29:11;13.93;;;9.82;;
20855;SDS011;63058;49.424;8.420;2023-05-20T21:31:37;13.63;;;11.15;;
20855;SDS011;63058;49.424;8.420;2023-05-20T21:34:02;12.25;;;9.07;;
20855;SDS011;63058;49.424;8.420;2023-05-20T21:36:28;9.15;;;7.95;;
20855;SDS011;63058;49.424;8.420;2023-05-20T21:38:53;11.65;;;9.30;;
20855;SDS011;63058;49.424;8.420;2023-05-20T21:41:19;10.63;;;8.30;;
20855;SDS011;63058;49.424;8.420;2023-05-20T21:43:45;9.02;;;7.22;;
20855;SDS011;63058;49.424;8.420;2023-05-20T21:46:11;11.30;;;9.25;;
20855;SDS011;63058;49.424;8.420;2023-05-20T21:48:37;15.65;;;9.23;;
20855;SDS011;63058;49.424;8.420;2023-05-20T21:51:03;10.60;;;8.52;;
20855;SDS011;63058;49.424;8.420;2023-05-20T21:53:29;18.05;;;12.48;;
20855;SDS011;63058;49.424;8.420;2023-05-20T21:55:55;11.45;;;9.10;;
20855;SDS011;63058;49.424;8.420;2023-05-20T21:58:21;13.98;;;10.85;;
20855;SDS011;63058;49.424;8.420;2023-05-20T22:00:47;12.85;;;10.20;;
20855;SDS011;63058;49.424;8.420;2023-05-20T22:03:13;13.77;;;10.52;;
20855;SDS011;63058;49.424;8.420;2023-05-20T22:05:38;13.40;;;10.30;;
20855;SDS011;63058;49.424;8.420;2023-05-20T22:08:09;15.18;;;9.23;;
20855;SDS011;63058;49.424;8.420;2023-05-20T22:10:35;13.95;;;11.45;;
20855;SDS011;63058;49.424;8.420;2023-05-20T22:13:01;12.48;;;10.30;;
20855;SDS011;63058;49.424;8.420;2023-05-20T22:15:27;13.10;;;9.75;;
20855;SDS011;63058;49.424;8.420;2023-05-20T22:17:52;10.52;;;8.25;;
20855;SDS011;63058;49.424;8.420;2023-05-20T22:20:19;11.80;;;10.25;;
20855;SDS011;63058;49.424;8.420;2023-05-20T22:22:45;12.25;;;10.45;;
20855;SDS011;63058;49.424;8.420;2023-05-20T22:25:12;14.80;;;9.63;;
20855;SDS011;63058;49.424;8.420;2023-05-20T22:27:38;9.63;;;7.93;;
20855;SDS011;63058;49.424;8.420;2023-05-20T22:30:07;17.55;;;12.60;;
20855;SDS011;63058;49.424;8.420;2023-05-20T22:32:34;10.93;;;9.73;;
20855;SDS011;63058;49.424;8.420;2023-05-20T22:34:59;11.30;;;9.15;;
20855;SDS011;63058;49.424;8.420;2023-05-20T22:37:25;15.30;;;10.95;;
20855;SDS011;63058;49.424;8.420;2023-05-20T22:39:52;13.23;;;10.43;;
20855;SDS011;63058;49.424;8.420;2023-05-20T22:42:18;12.32;;;9.18;;
20855;SDS011;63058;49.424;8.420;2023-05-20T22:44:44;12.20;;;9.88;;
20855;SDS011;63058;49.424;8.420;2023-05-20T22:47:10;14.15;;;9.23;;
20855;SDS011;63058;49.424;8.420;2023-05-20T22:49:36;11.02;;;9.18;;
20855;SDS011;63058;49.424;8.420;2023-05-20T22:52:03;11.48;;;9.35;;
20855;SDS011;63058;49.424;8.420;2023-05-20T22:54:30;9.20;;;7.30;;
20855;SDS011;63058;49.424;8.420;2023-05-20T22:56:56;13.25;;;9.70;;
20855;SDS011;63058;49.424;8.420;2023-05-20T22:59:23;11.80;;;9.93;;
20855;SDS011;63058;49.424;8.420;2023-05-20T23:01:50;10.20;;;8.25;;
20855;SDS011;63058;49.424;8.420;2023-05-20T23:04:15;11.68;;;9.27;;
20855;SDS011;63058;49.424;8.420;2023-05-20T23:06:41;11.98;;;9.18;;
20855;SDS011;63058;49.424;8.420;2023-05-20T23:09:07;11.00;;;9.20;;
20855;SDS011;63058;49.424;8.420;2023-05-20T23:11:33;11.93;;;9.68;;
20855;SDS011;63058;49.424;8.420;2023-05-20T23:13:59;10.05;;;7.93;;
20855;SDS011;63058;49.424;8.420;2023-05-20T23:16:24;9.70;;;7.88;;
20855;SDS011;63058;49.424;8.420;2023-05-20T23:18:51;11.98;;;10.50;;
20855;SDS011;63058;49.424;8.420;2023-05-20T23:21:17;12.68;;;9.73;;
20855;SDS011;63058;49.424;8.420;2023-05-20T23:23:43;11.15;;;8.82;;
20855;SDS011;63058;49.424;8.420;2023-05-20T23:26:09;13.00;;;10.07;;
20855;SDS011;63058;49.424;8.420;2023-05-20T23:28:35;18.88;;;12.43;;
20855;SDS011;63058;49.424;8.420;2023-05-20T23:31:01;11.45;;;9.02;;
20855;SDS011;63058;49.424;8.420;2023-05-20T23:33:26;15.88;;;11.57;;
20855;SDS011;63058;49.424;8.420;2023-05-20T23:35:53;15.98;;;11.70;;
20855;SDS011;63058;49.424;8.420;2023-05-20T23:38:19;13.40;;;9.23;;
20855;SDS011;63058;49.424;8.420;2023-05-20T23:40:45;14.55;;;11.13;;
20855;SDS011;63058;49.424;8.420;2023-05-20T23:43:11;14.05;;;10.25;;
20855;SDS011;63058;49.424;8.420;2023-05-20T23:45:37;14.10;;;11.85;;
20855;SDS011;63058;49.424;8.420;2023-05-20T23:48:03;11.48;;;9.65;;
20855;SDS011;63058;49.424;8.420;2023-05-20T23:50:29;13.30;;;9.15;;
20855;SDS011;63058;49.424;8.420;2023-05-20T23:52:56;12.68;;;9.93;;
20855;SDS011;63058;49.424;8.420;2023-05-20T23:55:22;13.27;;;9.15;;
20855;SDS011;63058;49.424;8.420;2023-05-20T23:57:48;11.15;;;9.25;;
